createdAt,value
2019-03-31T00:00:33.373Z,11.26
2019-03-31T00:03:00.800Z,11.11
2019-03-31T00:05:28.416Z,11.16
2019-03-31T00:07:55.389Z,11.24
2019-03-31T00:10:22.791Z,11.28
2019-03-31T00:12:50.252Z,11.31
2019-03-31T00:15:18.399Z,11.33
2019-03-31T00:17:46.254Z,11.34
2019-03-31T00:20:13.407Z,11.32
2019-03-31T00:22:40.375Z,11.35
2019-03-31T00:25:07.426Z,11.26
2019-03-31T00:27:34.942Z,11.07
2019-03-31T00:30:02.372Z,10.99
2019-03-31T00:32:29.902Z,10.86
2019-03-31T00:34:57.304Z,10.81
2019-03-31T00:37:24.718Z,10.76
2019-03-31T00:39:52.447Z,10.84
2019-03-31T00:42:19.871Z,10.94
2019-03-31T00:44:47.341Z,10.98
2019-03-31T00:47:14.755Z,11.00
2019-03-31T00:49:42.168Z,10.89
2019-03-31T00:52:09.606Z,10.82
2019-03-31T00:54:37.227Z,10.80
2019-03-31T00:57:04.704Z,10.74
2019-03-31T00:59:32.123Z,10.70
2019-03-31T01:01:59.587Z,10.65
2019-03-31T01:04:27.033Z,10.55
2019-03-31T01:06:54.448Z,10.38
2019-03-31T01:09:22.680Z,10.26
2019-03-31T01:11:50.174Z,10.15
2019-03-31T01:14:17.624Z,10.19
2019-03-31T01:16:45.055Z,10.19
2019-03-31T01:19:12.521Z,10.30
2019-03-31T01:21:39.974Z,10.37
2019-03-31T01:24:07.395Z,10.38
2019-03-31T01:26:34.795Z,10.41
2019-03-31T01:29:02.204Z,10.31
2019-03-31T01:31:30.640Z,10.16
2019-03-31T01:33:58.027Z,10.05
2019-03-31T01:36:25.586Z,10.07
2019-03-31T01:38:53.086Z,10.08
2019-03-31T01:41:20.510Z,9.97
2019-03-31T01:43:48.134Z,9.86
2019-03-31T01:46:15.546Z,9.89
2019-03-31T01:48:42.955Z,9.93
2019-03-31T01:51:10.356Z,10.11
2019-03-31T01:53:37.868Z,10.05
2019-03-31T01:56:05.295Z,10.10
2019-03-31T01:58:33.263Z,9.91
2019-03-31T02:01:00.680Z,9.86
2019-03-31T02:03:28.202Z,9.86
2019-03-31T02:05:55.607Z,9.79
2019-03-31T02:08:23.032Z,9.73
2019-03-31T02:10:50.459Z,9.72
2019-03-31T02:13:17.856Z,9.69
2019-03-31T02:15:45.243Z,9.50
2019-03-31T02:18:12.723Z,9.38
2019-03-31T02:20:40.156Z,9.39
2019-03-31T02:23:07.562Z,9.54
2019-03-31T02:25:35.047Z,9.45
2019-03-31T02:28:02.458Z,9.46
2019-03-31T02:30:30.712Z,9.39
2019-03-31T02:32:58.180Z,9.41
2019-03-31T02:35:25.592Z,9.44
2019-03-31T02:37:52.995Z,9.39
2019-03-31T02:40:20.405Z,9.37
2019-03-31T02:42:47.799Z,9.31
2019-03-31T02:45:15.217Z,9.24
2019-03-31T02:47:42.637Z,9.19
2019-03-31T02:50:10.024Z,9.26
2019-03-31T02:52:37.420Z,9.24
2019-03-31T02:55:04.826Z,9.25
2019-03-31T02:57:32.258Z,9.24
2019-03-31T02:59:59.656Z,9.20
2019-03-31T03:02:40.492Z,9.27
2019-03-31T03:04:54.468Z,9.40
2019-03-31T03:07:21.906Z,9.40
2019-03-31T03:09:49.329Z,9.35
2019-03-31T03:12:16.717Z,9.17
2019-03-31T03:14:44.111Z,9.07
2019-03-31T03:17:11.549Z,9.06
2019-03-31T03:19:38.967Z,8.96
2019-03-31T03:22:06.364Z,8.96
2019-03-31T03:24:33.760Z,9.05
2019-03-31T03:27:01.170Z,8.97
2019-03-31T03:29:28.583Z,8.93
2019-03-31T03:31:55.967Z,9.02
2019-03-31T03:34:23.358Z,9.08
2019-03-31T03:36:50.825Z,9.14
2019-03-31T03:39:18.225Z,9.10
2019-03-31T03:41:45.634Z,8.99
2019-03-31T03:44:13.037Z,8.95
2019-03-31T03:46:40.435Z,8.91
2019-03-31T03:49:07.913Z,8.87
2019-03-31T03:51:35.274Z,8.77
2019-03-31T03:54:02.684Z,8.74
2019-03-31T03:56:30.137Z,8.73
2019-03-31T03:58:57.528Z,8.68
2019-03-31T04:01:24.971Z,8.67
2019-03-31T04:03:52.383Z,8.67
2019-03-31T04:06:19.780Z,8.48
2019-03-31T04:08:47.195Z,8.44
2019-03-31T04:11:15.509Z,8.47
2019-03-31T04:13:42.941Z,8.47
2019-03-31T04:16:10.328Z,8.48
2019-03-31T04:18:37.718Z,8.43
2019-03-31T04:21:05.125Z,8.39
2019-03-31T04:23:32.554Z,8.36
2019-03-31T04:25:59.956Z,8.39
2019-03-31T04:28:27.343Z,8.43
2019-03-31T04:30:54.748Z,8.33
2019-03-31T04:33:22.421Z,8.33
2019-03-31T04:35:49.756Z,8.38
2019-03-31T04:38:17.158Z,8.36
2019-03-31T04:40:44.565Z,8.39
2019-03-31T04:43:11.973Z,8.28
2019-03-31T04:45:39.362Z,8.24
2019-03-31T04:48:06.751Z,8.27
2019-03-31T04:50:34.207Z,8.24
2019-03-31T04:53:01.654Z,8.22
2019-03-31T04:55:29.049Z,8.34
2019-03-31T04:57:56.457Z,8.37
2019-03-31T05:00:23.864Z,8.28
2019-03-31T05:02:51.290Z,8.19
2019-03-31T05:05:18.678Z,8.14
2019-03-31T05:07:46.097Z,8.17
2019-03-31T05:10:13.503Z,8.15
2019-03-31T05:12:40.900Z,8.14
2019-03-31T05:15:08.348Z,8.15
2019-03-31T05:17:36.073Z,8.15
2019-03-31T05:20:03.191Z,8.15
2019-03-31T05:22:30.599Z,8.11
2019-03-31T05:24:58.008Z,8.14
2019-03-31T05:27:26.318Z,8.13
2019-03-31T05:29:53.748Z,8.07
2019-03-31T05:32:21.161Z,8.06
2019-03-31T05:34:48.561Z,8.06
2019-03-31T05:37:15.967Z,8.22
2019-03-31T05:39:43.437Z,8.35
2019-03-31T05:42:10.829Z,8.45
2019-03-31T05:44:38.232Z,8.49
2019-03-31T05:47:05.621Z,8.51
2019-03-31T05:49:33.056Z,8.55
2019-03-31T05:52:00.540Z,8.58
2019-03-31T05:54:28.068Z,8.57
2019-03-31T05:56:55.470Z,8.56
2019-03-31T05:59:22.912Z,8.66
2019-03-31T06:01:50.361Z,8.93
2019-03-31T06:04:17.755Z,9.41
2019-03-31T06:06:45.170Z,9.84
2019-03-31T06:09:12.948Z,10.05
2019-03-31T06:11:40.378Z,10.21
2019-03-31T06:14:07.823Z,10.22
2019-03-31T06:16:35.221Z,10.17
2019-03-31T06:19:02.637Z,10.29
2019-03-31T06:21:30.159Z,10.32
2019-03-31T06:23:57.609Z,10.42
2019-03-31T06:26:25.017Z,10.57
2019-03-31T06:28:52.434Z,10.66
2019-03-31T06:31:19.970Z,10.73
2019-03-31T06:33:47.368Z,10.78
2019-03-31T06:36:14.782Z,10.91
2019-03-31T06:38:42.222Z,10.92
2019-03-31T06:41:09.667Z,10.99
2019-03-31T06:43:37.131Z,10.99
2019-03-31T06:46:04.547Z,11.09
2019-03-31T06:48:32.859Z,11.17
2019-03-31T06:51:00.255Z,11.01
2019-03-31T06:53:27.660Z,10.99
2019-03-31T06:55:55.058Z,11.36
2019-03-31T06:58:22.471Z,11.49
2019-03-31T07:00:49.876Z,11.84
2019-03-31T07:03:17.283Z,12.15
2019-03-31T07:05:44.695Z,12.32
2019-03-31T07:08:12.112Z,12.20
2019-03-31T07:10:39.628Z,12.16
2019-03-31T07:13:07.039Z,12.32
2019-03-31T07:15:34.463Z,12.02
2019-03-31T07:18:01.868Z,11.87
2019-03-31T07:20:29.277Z,11.56
2019-03-31T07:22:56.678Z,11.18
2019-03-31T07:25:24.094Z,11.00
2019-03-31T07:27:51.768Z,10.88
2019-03-31T07:30:19.200Z,11.18
2019-03-31T07:32:46.589Z,11.62
2019-03-31T07:35:18.799Z,11.99
2019-03-31T07:37:47.614Z,12.27
2019-03-31T07:40:09.843Z,12.42
2019-03-31T07:42:37.204Z,12.23
2019-03-31T07:45:05.755Z,12.12
2019-03-31T07:47:33.171Z,12.54
2019-03-31T07:50:00.817Z,12.90
2019-03-31T07:52:28.389Z,13.09
2019-03-31T07:54:55.848Z,13.14
2019-03-31T07:57:23.363Z,13.17
2019-03-31T07:59:50.862Z,13.12
2019-03-31T08:02:18.211Z,13.14
2019-03-31T08:04:45.996Z,13.22
2019-03-31T08:07:13.400Z,13.41
2019-03-31T08:09:41.496Z,13.28
2019-03-31T08:12:08.910Z,13.44
2019-03-31T08:14:36.517Z,13.77
2019-03-31T08:17:03.906Z,14.02
2019-03-31T08:19:31.468Z,14.19
2019-03-31T08:21:59.055Z,14.39
2019-03-31T08:24:26.663Z,14.59
2019-03-31T08:26:54.347Z,14.57
2019-03-31T08:29:21.817Z,14.57
2019-03-31T08:31:49.432Z,14.57
2019-03-31T08:34:17.675Z,14.54
2019-03-31T08:36:45.129Z,14.54
2019-03-31T08:39:12.513Z,14.74
2019-03-31T08:41:39.988Z,14.96
2019-03-31T08:44:07.398Z,15.19
2019-03-31T08:46:34.788Z,15.26
2019-03-31T08:49:02.203Z,15.38
2019-03-31T08:51:29.665Z,15.32
2019-03-31T08:53:57.151Z,15.35
2019-03-31T08:56:25.033Z,15.14
2019-03-31T08:58:52.710Z,14.98
2019-03-31T09:01:20.250Z,15.17
2019-03-31T09:03:47.843Z,15.34
2019-03-31T09:06:15.622Z,15.46
2019-03-31T09:08:43.321Z,15.44
2019-03-31T09:11:10.868Z,15.73
2019-03-31T09:13:38.394Z,15.86
2019-03-31T09:16:05.891Z,16.00
2019-03-31T09:18:33.343Z,16.05
2019-03-31T09:21:00.948Z,16.11
2019-03-31T09:23:29.404Z,16.26
2019-03-31T09:25:56.896Z,16.28
2019-03-31T09:28:24.371Z,16.23
2019-03-31T09:30:51.870Z,16.30
2019-03-31T09:33:19.285Z,16.38
2019-03-31T09:35:46.799Z,16.47
2019-03-31T09:38:14.432Z,16.52
2019-03-31T09:40:41.889Z,16.65
2019-03-31T09:43:09.304Z,16.79
2019-03-31T09:45:36.727Z,16.86
2019-03-31T09:48:04.122Z,16.98
2019-03-31T09:50:31.637Z,17.13
2019-03-31T09:52:59.242Z,17.19
2019-03-31T09:55:26.739Z,17.27
2019-03-31T09:57:54.159Z,17.34
2019-03-31T10:00:28.399Z,17.49
2019-03-31T10:02:55.850Z,17.62
2019-03-31T10:05:23.330Z,17.80
2019-03-31T10:07:50.747Z,17.94
2019-03-31T10:10:29.173Z,18.12
2019-03-31T10:12:56.577Z,18.21
2019-03-31T10:15:24.038Z,18.35
2019-03-31T10:17:51.454Z,18.44
2019-03-31T10:20:18.870Z,18.63
2019-03-31T10:22:46.290Z,18.77
2019-03-31T10:25:13.719Z,18.88
2019-03-31T10:27:41.142Z,19.08
2019-03-31T10:30:08.544Z,18.89
2019-03-31T10:32:36.489Z,18.54
2019-03-31T10:35:03.988Z,18.64
2019-03-31T10:37:31.431Z,18.98
2019-03-31T10:39:58.856Z,19.31
2019-03-31T10:42:26.839Z,19.38
2019-03-31T10:44:54.280Z,19.15
2019-03-31T10:47:21.716Z,18.88
2019-03-31T10:49:49.440Z,18.86
2019-03-31T10:52:16.838Z,18.87
2019-03-31T10:54:44.333Z,18.86
2019-03-31T10:57:11.746Z,19.35
2019-03-31T10:59:39.219Z,20.09
2019-03-31T11:02:06.166Z,20.58
2019-03-31T11:04:33.583Z,20.92
2019-03-31T11:07:03.530Z,21.19
2019-03-31T11:09:28.592Z,21.54
2019-03-31T11:11:56.022Z,21.40
2019-03-31T11:14:23.444Z,21.49
2019-03-31T11:16:51.009Z,21.61
2019-03-31T11:19:18.430Z,21.87
2019-03-31T11:21:45.958Z,22.22
2019-03-31T11:24:14.068Z,22.37
2019-03-31T11:26:41.518Z,22.51
2019-03-31T11:29:09.022Z,22.71
2019-03-31T11:31:37.495Z,22.86
2019-03-31T11:34:04.921Z,23.04
2019-03-31T11:36:32.346Z,23.36
2019-03-31T11:38:59.759Z,23.48
2019-03-31T11:41:27.169Z,23.68
2019-03-31T11:43:54.582Z,23.92
2019-03-31T11:46:22.951Z,24.02
2019-03-31T11:48:50.412Z,24.09
2019-03-31T11:51:17.849Z,24.22
2019-03-31T11:53:45.443Z,24.53
2019-03-31T11:56:13.200Z,24.72
2019-03-31T11:58:40.685Z,24.86
2019-03-31T12:01:08.103Z,25.00
2019-03-31T12:03:35.564Z,25.15
2019-03-31T12:06:03.580Z,24.92
2019-03-31T12:08:30.991Z,25.23
2019-03-31T12:10:59.622Z,25.45
2019-03-31T12:13:27.034Z,25.71
2019-03-31T12:15:54.450Z,25.81
2019-03-31T12:18:21.858Z,25.80
2019-03-31T12:20:49.708Z,26.01
2019-03-31T12:23:18.459Z,26.20
2019-03-31T12:25:46.038Z,26.28
2019-03-31T12:28:13.519Z,26.39
2019-03-31T12:30:40.961Z,26.57
2019-03-31T12:33:08.388Z,26.83
2019-03-31T12:35:35.809Z,27.05
2019-03-31T12:38:03.212Z,27.20
2019-03-31T12:40:30.665Z,27.21
2019-03-31T12:42:58.108Z,26.99
2019-03-31T12:45:25.522Z,26.70
2019-03-31T12:47:52.946Z,26.30
2019-03-31T12:50:20.354Z,26.32
2019-03-31T12:52:51.010Z,26.53
2019-03-31T12:55:15.190Z,26.31
2019-03-31T12:57:43.411Z,26.47
2019-03-31T13:00:10.828Z,26.84
2019-03-31T13:02:38.245Z,27.23
2019-03-31T13:05:05.640Z,27.33
2019-03-31T13:07:33.118Z,27.43
2019-03-31T13:10:00.596Z,27.58
2019-03-31T13:12:28.101Z,27.80
2019-03-31T13:14:55.498Z,27.99
2019-03-31T13:17:22.904Z,28.16
2019-03-31T13:19:49.849Z,28.15
2019-03-31T13:22:17.252Z,28.16
2019-03-31T13:24:44.670Z,27.65
2019-03-31T13:27:11.677Z,26.64
2019-03-31T13:29:38.624Z,25.60
2019-03-31T13:32:05.569Z,24.98
2019-03-31T13:34:32.976Z,24.35
2019-03-31T13:37:00.374Z,23.55
2019-03-31T13:39:27.784Z,22.80
2019-03-31T13:41:55.203Z,22.07
2019-03-31T13:44:22.614Z,21.99
2019-03-31T13:46:50.068Z,22.35
2019-03-31T13:49:17.481Z,22.75
2019-03-31T13:51:44.883Z,23.02
2019-03-31T13:54:12.297Z,22.73
2019-03-31T13:56:40.060Z,22.85
2019-03-31T13:59:09.126Z,23.36
2019-03-31T14:01:34.554Z,24.16
2019-03-31T14:04:03.656Z,24.94
2019-03-31T14:06:31.626Z,25.14
2019-03-31T14:08:56.855Z,25.18
2019-03-31T14:11:24.252Z,25.38
2019-03-31T14:13:51.917Z,25.44
2019-03-31T14:16:19.370Z,25.72
2019-03-31T14:18:46.791Z,25.79
2019-03-31T14:21:14.287Z,25.31
2019-03-31T14:23:43.927Z,25.16
2019-03-31T14:26:10.161Z,24.86
2019-03-31T14:28:37.568Z,24.81
2019-03-31T14:31:04.965Z,24.63
2019-03-31T14:33:32.369Z,24.83
2019-03-31T14:35:59.780Z,25.56
2019-03-31T14:38:39.592Z,26.07
2019-03-31T14:40:54.620Z,25.77
2019-03-31T14:43:22.055Z,25.70
2019-03-31T14:45:49.517Z,25.63
2019-03-31T14:48:16.947Z,26.00
2019-03-31T14:50:44.375Z,25.91
2019-03-31T14:53:11.781Z,26.45
2019-03-31T14:55:39.188Z,26.81
2019-03-31T14:58:08.272Z,26.72
2019-03-31T15:00:34.064Z,27.10
2019-03-31T15:03:01.666Z,27.29
2019-03-31T15:05:29.134Z,27.44
2019-03-31T15:07:58.534Z,27.61
2019-03-31T15:10:24.027Z,27.41
2019-03-31T15:12:51.447Z,26.66
2019-03-31T15:15:18.851Z,26.20
2019-03-31T15:17:46.259Z,25.56
2019-03-31T15:20:13.674Z,25.74
2019-03-31T15:22:41.066Z,26.01
2019-03-31T15:25:08.499Z,25.87
2019-03-31T15:27:35.936Z,25.75
2019-03-31T15:30:03.359Z,26.12
2019-03-31T15:32:30.746Z,26.35
2019-03-31T15:34:58.148Z,26.59
2019-03-31T15:37:25.687Z,26.55
2019-03-31T15:39:53.461Z,26.66
2019-03-31T15:42:20.897Z,26.69
2019-03-31T15:44:48.300Z,26.78
2019-03-31T15:47:15.813Z,26.85
2019-03-31T15:49:43.237Z,26.88
2019-03-31T15:52:10.639Z,26.91
2019-03-31T15:54:38.168Z,26.84
2019-03-31T15:57:05.567Z,26.73
2019-03-31T15:59:32.984Z,26.36
2019-03-31T16:02:00.464Z,25.73
2019-03-31T16:04:27.883Z,24.92
2019-03-31T16:06:55.272Z,24.50
2019-03-31T16:09:23.923Z,24.43
2019-03-31T16:11:53.925Z,24.29
2019-03-31T16:14:17.548Z,24.37
2019-03-31T16:16:44.967Z,24.41
2019-03-31T16:19:12.370Z,24.15
2019-03-31T16:21:39.792Z,24.10
2019-03-31T16:24:07.226Z,24.14
2019-03-31T16:26:34.631Z,23.98
2019-03-31T16:29:02.048Z,23.58
2019-03-31T16:31:29.461Z,23.50
2019-03-31T16:33:56.871Z,23.42
2019-03-31T16:36:24.687Z,23.33
2019-03-31T16:38:52.118Z,23.17
2019-03-31T16:41:19.535Z,23.04
2019-03-31T16:43:46.952Z,22.85
2019-03-31T16:46:14.430Z,22.67
2019-03-31T16:48:42.027Z,22.56
2019-03-31T16:51:09.531Z,22.50
2019-03-31T16:53:36.949Z,22.47
2019-03-31T16:56:04.355Z,22.43
2019-03-31T16:58:31.764Z,22.51
2019-03-31T17:00:59.388Z,22.62
2019-03-31T17:03:26.776Z,22.62
2019-03-31T17:05:54.186Z,22.54
2019-03-31T17:08:21.631Z,22.35
2019-03-31T17:10:49.124Z,22.18
2019-03-31T17:13:16.522Z,21.91
2019-03-31T17:15:44.334Z,21.71
2019-03-31T17:18:11.824Z,21.55
2019-03-31T17:20:39.319Z,21.25
2019-03-31T17:23:06.752Z,20.87
2019-03-31T17:25:34.205Z,20.57
2019-03-31T17:28:02.272Z,20.34
2019-03-31T17:30:29.710Z,20.05
2019-03-31T17:32:57.231Z,20.00
2019-03-31T17:35:24.695Z,20.01
2019-03-31T17:37:52.116Z,19.83
2019-03-31T17:40:20.838Z,19.71
2019-03-31T17:42:49.747Z,19.66
2019-03-31T17:45:17.595Z,19.56
2019-03-31T17:47:45.090Z,19.38
2019-03-31T17:50:12.631Z,19.27
2019-03-31T17:52:40.045Z,19.14
2019-03-31T17:55:07.453Z,19.03
2019-03-31T17:57:34.862Z,18.97
2019-03-31T18:00:02.285Z,18.85
2019-03-31T18:02:29.708Z,18.77
2019-03-31T18:04:57.096Z,18.71
2019-03-31T18:07:24.503Z,18.58
2019-03-31T18:09:51.933Z,18.52
2019-03-31T18:12:19.380Z,18.54
2019-03-31T18:14:46.809Z,18.44
2019-03-31T18:17:14.206Z,18.38
2019-03-31T18:19:41.642Z,18.31
2019-03-31T18:22:16.355Z,18.42
2019-03-31T18:24:36.436Z,18.53
2019-03-31T18:27:03.832Z,18.56
2019-03-31T18:29:31.283Z,18.58
2019-03-31T18:31:58.671Z,18.56
2019-03-31T18:34:26.088Z,18.52
2019-03-31T18:36:53.504Z,18.45
2019-03-31T18:39:20.971Z,18.38
2019-03-31T18:41:48.389Z,18.33
2019-03-31T18:44:15.809Z,18.26
2019-03-31T18:46:43.206Z,18.28
2019-03-31T18:49:11.527Z,18.24
2019-03-31T18:51:39.231Z,18.18
2019-03-31T18:54:11.613Z,18.06
2019-03-31T18:56:39.074Z,17.94
2019-03-31T18:59:09.089Z,17.96
2019-03-31T19:01:37.878Z,17.94
2019-03-31T19:07:05.235Z,18.11
2019-03-31T19:09:47.609Z,17.95
2019-03-31T19:12:20.785Z,17.83
2019-03-31T19:15:00.255Z,17.87
2019-03-31T19:20:27.125Z,18.11
2019-03-31T19:23:15.311Z,18.07
2019-03-31T19:25:42.748Z,17.91
2019-03-31T19:28:14.762Z,17.68
2019-03-31T19:30:42.976Z,17.48
2019-03-31T19:33:16.063Z,17.31
2019-03-31T19:35:54.437Z,17.14
2019-03-31T19:38:26.441Z,16.98
2019-03-31T19:41:04.063Z,16.83
2019-03-31T19:43:33.678Z,16.77
2019-03-31T19:46:05.701Z,16.76
2019-03-31T19:48:31.851Z,16.72
2019-03-31T19:51:02.158Z,16.71
2019-03-31T19:53:50.386Z,16.62
2019-03-31T19:56:17.845Z,16.64
2019-03-31T19:58:50.844Z,16.60
2019-03-31T20:01:22.873Z,16.60
2019-03-31T20:03:55.822Z,16.63
2019-03-31T20:06:28.944Z,16.53
2019-03-31T20:08:58.310Z,16.40
2019-03-31T20:11:28.633Z,16.43
2019-03-31T20:14:01.742Z,16.45
2019-03-31T20:16:35.184Z,16.33
2019-03-31T20:19:05.186Z,16.30
2019-03-31T20:21:32.992Z,16.25
2019-03-31T20:24:06.095Z,16.05
2019-03-31T20:26:44.319Z,15.79
2019-03-31T20:29:12.212Z,15.72
2019-03-31T20:31:42.527Z,15.71
2019-03-31T20:34:10.726Z,15.79
2019-03-31T20:36:48.047Z,15.90
2019-03-31T20:39:17.276Z,15.82
2019-03-31T20:41:45.486Z,15.59
2019-03-31T20:44:12.882Z,15.60
2019-03-31T20:46:40.310Z,15.58
2019-03-31T20:49:07.776Z,15.47
2019-03-31T20:51:35.170Z,15.36
2019-03-31T20:54:02.581Z,15.33
2019-03-31T20:56:29.983Z,15.41
2019-03-31T20:58:57.392Z,15.46
2019-03-31T21:01:24.822Z,15.44
2019-03-31T21:03:52.254Z,15.39
2019-03-31T21:06:19.679Z,15.44
2019-03-31T21:08:48.139Z,15.44
2019-03-31T21:11:15.543Z,15.45
2019-03-31T21:13:42.968Z,15.30
2019-03-31T21:16:11.049Z,15.20
2019-03-31T21:18:38.443Z,15.01
2019-03-31T21:21:05.868Z,14.87
2019-03-31T21:23:33.298Z,14.81
2019-03-31T21:26:00.698Z,14.78
2019-03-31T21:28:28.132Z,14.73
2019-03-31T21:30:55.547Z,14.71
2019-03-31T21:33:22.953Z,14.59
2019-03-31T21:35:50.359Z,14.56
2019-03-31T21:38:17.757Z,14.42
2019-03-31T21:40:45.175Z,14.31
2019-03-31T21:43:12.870Z,14.31
2019-03-31T21:45:40.286Z,14.44
2019-03-31T21:48:07.701Z,14.63
2019-03-31T21:50:35.106Z,14.63
2019-03-31T21:53:02.527Z,14.68
2019-03-31T21:55:29.950Z,14.67
2019-03-31T21:57:57.429Z,14.60
2019-03-31T22:00:24.836Z,14.53
2019-03-31T22:02:52.259Z,14.39
2019-03-31T22:05:19.692Z,14.23
2019-03-31T22:07:47.143Z,14.16
2019-03-31T22:10:14.586Z,14.03
2019-03-31T22:12:42.005Z,13.91
2019-03-31T22:15:09.479Z,13.92
2019-03-31T22:17:36.875Z,13.99
2019-03-31T22:20:05.327Z,14.04
2019-03-31T22:22:32.863Z,14.09
2019-03-31T22:25:00.528Z,14.09
2019-03-31T22:27:27.989Z,14.04
2019-03-31T22:29:55.440Z,13.95
2019-03-31T22:32:22.856Z,13.98
2019-03-31T22:34:50.654Z,13.98
2019-03-31T22:37:18.092Z,14.01
2019-03-31T22:39:45.520Z,13.98
2019-03-31T22:42:12.977Z,13.92
2019-03-31T22:44:40.387Z,13.86
2019-03-31T22:47:07.806Z,13.87
2019-03-31T22:49:35.198Z,13.81
2019-03-31T22:52:02.600Z,13.82
2019-03-31T22:54:30.024Z,13.84
2019-03-31T22:56:57.481Z,13.88
2019-03-31T22:59:24.920Z,13.90
2019-03-31T23:01:52.318Z,13.90
2019-03-31T23:04:19.747Z,13.99
2019-03-31T23:06:47.151Z,14.15
2019-03-31T23:09:14.662Z,14.17
2019-03-31T23:11:42.077Z,14.30
2019-03-31T23:14:09.491Z,14.16
2019-03-31T23:16:36.911Z,14.12
2019-03-31T23:19:04.338Z,14.18
2019-03-31T23:21:31.754Z,14.34
2019-03-31T23:23:59.157Z,14.31
2019-03-31T23:26:26.562Z,14.25
2019-03-31T23:28:53.987Z,14.30
2019-03-31T23:31:21.416Z,14.14
2019-03-31T23:33:48.810Z,14.17
2019-03-31T23:36:16.211Z,14.07
2019-03-31T23:38:43.622Z,13.92
2019-03-31T23:41:11.055Z,13.86
2019-03-31T23:43:38.443Z,13.94
2019-03-31T23:46:05.866Z,13.83
2019-03-31T23:48:33.280Z,13.80
2019-03-31T23:51:00.706Z,13.84
2019-03-31T23:53:28.097Z,13.87
2019-03-31T23:55:55.500Z,13.88
2019-03-31T23:58:22.970Z,13.77
